Time;durP1;ratioP1;P1;durP2;ratioP2;P2;SDS_P1;SDS_P2;PMS_P1;PMS_P2;Temp;Humidity;BMP_temperature;BMP_pressure;BME280_temperature;BME280_humidity;BME280_pressure;Samples;Min_cycle;Max_cycle;Signal;HPM_P1;HPM_P2
2021/05/23 00:00:26;;;;;;;5.70;0.85;;;9.90;99.90;;;;;;5090055;28;20040;-82
2021/05/23 00:02:58;;;;;;;4.20;1.00;;;10.00;99.90;;;;;;5075600;28;20028;-83
2021/05/23 00:05:27;;;;;;;2.50;0.80;;;10.20;99.90;;;;;;5075743;28;20044;-84
2021/05/23 00:08:03;;;;;;;2.67;0.60;;;10.30;99.90;;;;;;5090985;28;20044;-83
2021/05/23 00:10:31;;;;;;;3.72;1.00;;;10.40;99.90;;;;;;5075936;28;20037;-84
2021/05/23 00:13:00;;;;;;;5.18;1.10;;;10.50;99.90;;;;;;5074950;28;20032;-83
2021/05/23 00:15:39;;;;;;;5.63;1.10;;;10.60;99.90;;;;;;5085936;28;20040;-82
2021/05/23 00:18:07;;;;;;;4.07;0.70;;;10.60;99.90;;;;;;5075620;28;20377;-83
2021/05/23 00:20:34;;;;;;;5.63;0.95;;;10.60;99.90;;;;;;5075275;28;20036;-84
2021/05/23 00:23:00;;;;;;;4.00;1.02;;;10.70;99.90;;;;;;5074826;28;20032;-84
2021/05/23 00:25:27;;;;;;;3.13;0.82;;;10.70;99.90;;;;;;5075379;28;20048;-83
2021/05/23 00:27:53;;;;;;;3.20;0.73;;;10.80;99.90;;;;;;5073286;28;20041;-83
2021/05/23 00:30:20;;;;;;;3.53;0.77;;;10.90;99.90;;;;;;5075185;28;20039;-83
2021/05/23 00:32:46;;;;;;;4.13;0.90;;;10.90;99.90;;;;;;5061420;28;20045;-83
2021/05/23 00:35:13;;;;;;;3.75;0.70;;;10.90;99.90;;;;;;5055132;28;20417;-83
2021/05/23 00:37:40;;;;;;;3.33;0.80;;;10.90;99.90;;;;;;5053743;28;20045;-82
2021/05/23 00:40:07;;;;;;;2.72;0.70;;;10.90;99.90;;;;;;5054952;28;20039;-83
2021/05/23 00:42:33;;;;;;;3.28;0.70;;;10.90;99.90;;;;;;5054982;28;20044;-83
2021/05/23 00:45:01;;;;;;;2.58;0.60;;;11.00;99.90;;;;;;5053873;28;20471;-83
2021/05/23 00:47:27;;;;;;;2.15;0.70;;;11.00;99.90;;;;;;5054718;28;20029;-83
2021/05/23 00:49:53;;;;;;;3.53;1.17;;;11.00;99.90;;;;;;5054280;28;20033;-82
2021/05/23 00:52:20;;;;;;;2.90;1.02;;;11.00;99.90;;;;;;5054744;28;20037;-82
2021/05/23 00:54:47;;;;;;;3.33;1.60;;;11.00;99.90;;;;;;5054377;28;20040;-82
2021/05/23 00:57:14;;;;;;;3.33;1.05;;;11.00;99.90;;;;;;5054276;28;20036;-82
2021/05/23 00:59:41;;;;;;;4.55;1.70;;;11.00;99.90;;;;;;5062001;28;20032;-82
2021/05/23 01:02:07;;;;;;;2.88;0.90;;;10.80;99.90;;;;;;5066126;28;20033;-82
2021/05/23 01:04:34;;;;;;;2.05;0.95;;;10.80;99.90;;;;;;5072353;28;20020;-83
2021/05/23 01:07:00;;;;;;;1.67;0.60;;;10.80;99.90;;;;;;5055934;28;20041;-83
2021/05/23 01:09:27;;;;;;;2.05;0.60;;;10.90;99.90;;;;;;5054539;28;20051;-83
2021/05/23 01:12:38;;;;;;;3.63;0.70;;;11.00;99.90;;;;;;5073407;28;20373;-81
2021/05/23 01:15:05;;;;;;;3.00;1.02;;;10.90;99.90;;;;;;5030088;28;20085;-83
2021/05/23 01:17:38;;;;;;;1.25;0.55;;;10.90;99.90;;;;;;5053677;28;20029;-80
2021/05/23 01:20:49;;;;;;;2.92;0.57;;;10.80;99.90;;;;;;5061440;28;20029;-82
2021/05/23 01:23:24;;;;;;;1.75;0.60;;;10.90;99.90;;;;;;5025544;28;20037;-84
2021/05/23 01:25:55;;;;;;;3.92;0.80;;;11.00;98.30;;;;;;5053762;28;20037;-81
2021/05/23 01:28:21;;;;;;;3.58;0.68;;;11.10;97.30;;;;;;5053881;28;20032;-82
2021/05/23 01:30:50;;;;;;;0.98;0.40;;;11.20;97.10;;;;;;5053536;28;20033;-81
2021/05/23 01:33:20;;;;;;;1.98;0.40;;;11.10;96.90;;;;;;5054225;28;20475;-82
2021/05/23 01:35:53;;;;;;;2.22;0.45;;;11.10;96.50;;;;;;5063201;28;20040;-82
2021/05/23 01:38:20;;;;;;;4.18;0.85;;;11.10;96.40;;;;;;5059516;28;20045;-82
2021/05/23 01:40:49;;;;;;;1.13;0.47;;;11.10;97.10;;;;;;5036466;28;20045;-83
2021/05/23 01:43:15;;;;;;;3.28;0.82;;;11.00;97.70;;;;;;5060900;28;20482;-84
2021/05/23 01:45:42;;;;;;;2.28;1.00;;;11.00;98.50;;;;;;5063493;28;20467;-83
2021/05/23 01:48:10;;;;;;;3.78;0.88;;;10.90;99.10;;;;;;5061340;28;20489;-84
2021/05/23 01:50:38;;;;;;;3.25;0.75;;;10.80;98.20;;;;;;5068162;28;20402;-81
2021/05/23 01:53:05;;;;;;;1.48;0.47;;;10.90;98.70;;;;;;5053370;28;20040;-82
2021/05/23 01:55:33;;;;;;;8.30;0.70;;;10.90;99.00;;;;;;5055581;28;20048;-82
2021/05/23 01:58:00;;;;;;;1.55;0.50;;;10.90;98.60;;;;;;5064329;28;20040;-81
2021/05/23 02:00:37;;;;;;;2.65;0.65;;;10.80;98.90;;;;;;5071154;28;20040;-82
2021/05/23 02:03:06;;;;;;;2.20;0.50;;;10.80;99.10;;;;;;5058495;28;20033;-83
2021/05/23 02:05:35;;;;;;;2.65;0.60;;;10.80;98.30;;;;;;5053671;28;20033;-81
2021/05/23 02:08:02;;;;;;;3.25;0.60;;;10.80;98.30;;;;;;5052541;28;20025;-83
2021/05/23 02:10:28;;;;;;;1.60;0.40;;;10.90;98.20;;;;;;5053106;28;20033;-82
2021/05/23 02:12:57;;;;;;;6.20;1.10;;;10.90;98.10;;;;;;5052854;28;20025;-82
2021/05/23 02:15:23;;;;;;;1.33;0.60;;;10.90;98.10;;;;;;5053258;28;20045;-81
2021/05/23 02:17:50;;;;;;;4.00;0.70;;;10.80;98.10;;;;;;5049482;28;20351;-83
2021/05/23 02:20:25;;;;;;;6.38;1.00;;;10.80;98.00;;;;;;5059109;28;20373;-85
2021/05/23 02:22:51;;;;;;;2.88;0.88;;;10.90;98.10;;;;;;5058260;28;20033;-82
2021/05/23 02:25:19;;;;;;;2.25;1.02;;;10.80;97.70;;;;;;5052258;28;20059;-83
2021/05/23 02:27:53;;;;;;;2.83;0.82;;;10.80;97.40;;;;;;5051827;28;20033;-81
2021/05/23 02:30:27;;;;;;;3.05;0.90;;;10.80;97.50;;;;;;5063470;28;20043;-83
2021/05/23 02:32:55;;;;;;;2.15;0.98;;;10.80;97.30;;;;;;5057999;28;20044;-83
2021/05/23 02:35:24;;;;;;;2.88;0.65;;;10.80;97.00;;;;;;5070019;28;20390;-81
2021/05/23 02:37:52;;;;;;;1.92;0.68;;;10.80;97.00;;;;;;5052250;28;20442;-83
2021/05/23 02:40:20;;;;;;;1.55;0.60;;;10.80;96.90;;;;;;5059485;28;20033;-84
2021/05/23 02:42:48;;;;;;;3.28;0.77;;;10.80;96.20;;;;;;5065760;28;20048;-82
2021/05/23 02:45:15;;;;;;;1.52;0.70;;;10.80;96.60;;;;;;5052771;28;20028;-82
2021/05/23 02:47:44;;;;;;;3.28;0.75;;;10.80;96.10;;;;;;5052271;28;20040;-82
2021/05/23 02:50:13;;;;;;;3.00;0.60;;;10.80;96.00;;;;;;5052523;28;20033;-81
2021/05/23 02:52:40;;;;;;;5.78;0.65;;;10.80;95.40;;;;;;5051678;28;20052;-81
2021/05/23 02:55:07;;;;;;;2.53;1.27;;;10.70;96.20;;;;;;5052502;28;20035;-83
2021/05/23 02:57:35;;;;;;;3.10;0.80;;;10.70;96.00;;;;;;5052462;28;20033;-82
2021/05/23 03:00:03;;;;;;;3.47;0.77;;;10.70;96.10;;;;;;5060285;28;20052;-82
2021/05/23 03:02:29;;;;;;;1.67;0.68;;;10.70;96.20;;;;;;5052675;28;20033;-82
2021/05/23 03:04:55;;;;;;;3.40;1.15;;;10.70;95.80;;;;;;5052183;28;20041;-83
2021/05/23 03:07:22;;;;;;;3.63;0.80;;;10.70;96.20;;;;;;5052390;28;20037;-81
2021/05/23 03:09:49;;;;;;;3.22;0.70;;;10.60;96.30;;;;;;5052103;28;20033;-82
2021/05/23 03:12:16;;;;;;;5.28;0.70;;;10.60;96.50;;;;;;5069669;28;20045;-82
2021/05/23 03:14:43;;;;;;;1.50;0.73;;;10.50;97.10;;;;;;5055546;28;20033;-81
2021/05/23 03:17:10;;;;;;;1.50;0.63;;;10.40;97.00;;;;;;5052029;28;20041;-80
2021/05/23 03:19:37;;;;;;;3.35;0.82;;;10.50;96.60;;;;;;5043862;28;20048;-81
2021/05/23 03:22:05;;;;;;;4.22;0.63;;;10.50;97.30;;;;;;5051714;28;21232;-82
2021/05/23 03:24:32;;;;;;;1.70;0.70;;;10.50;96.70;;;;;;5052255;28;20025;-81
2021/05/23 03:26:59;;;;;;;4.32;0.73;;;10.50;96.90;;;;;;5051731;28;20039;-81
2021/05/23 03:29:25;;;;;;;2.78;0.75;;;10.60;96.60;;;;;;5052208;28;20037;-83
2021/05/23 03:31:51;;;;;;;2.33;0.80;;;10.60;96.30;;;;;;5051314;28;20045;-78
2021/05/23 03:34:17;;;;;;;2.67;0.93;;;10.60;96.40;;;;;;5049455;28;20049;-80
2021/05/23 03:36:44;;;;;;;2.65;0.65;;;10.60;96.80;;;;;;5070434;28;20048;-80
2021/05/23 03:39:10;;;;;;;5.00;1.58;;;10.50;96.80;;;;;;5053562;28;20095;-81
2021/05/23 03:41:37;;;;;;;3.00;0.85;;;10.60;96.40;;;;;;5051744;28;20029;-82
2021/05/23 03:44:03;;;;;;;3.42;0.82;;;10.60;95.80;;;;;;5050908;28;20045;-82
2021/05/23 03:46:29;;;;;;;1.00;0.50;;;10.60;95.80;;;;;;5062771;28;20036;-82
2021/05/23 03:48:56;;;;;;;2.53;0.77;;;10.60;95.90;;;;;;5051604;28;20029;-82
2021/05/23 03:51:22;;;;;;;3.10;0.80;;;10.50;96.10;;;;;;5034780;28;20029;-82
2021/05/23 03:53:48;;;;;;;2.03;0.82;;;10.50;96.10;;;;;;5051624;28;20351;-82
2021/05/23 03:56:14;;;;;;;2.30;0.80;;;10.50;96.10;;;;;;5060724;28;20115;-84
2021/05/23 03:58:40;;;;;;;2.55;0.60;;;10.50;96.10;;;;;;5055167;28;20036;-81
2021/05/23 04:01:07;;;;;;;2.08;0.82;;;10.50;96.00;;;;;;5068089;28;20430;-82
2021/05/23 04:03:33;;;;;;;2.80;0.60;;;10.50;96.30;;;;;;5049471;28;20552;-81
2021/05/23 04:05:59;;;;;;;4.32;0.80;;;10.50;96.30;;;;;;5062661;28;20032;-80
2021/05/23 04:08:25;;;;;;;2.58;0.80;;;10.50;96.80;;;;;;5059838;28;20029;-82
2021/05/23 04:11:02;;;;;;;3.28;0.70;;;10.50;97.10;;;;;;5059120;28;20025;-81
2021/05/23 04:13:28;;;;;;;4.00;0.95;;;10.50;96.90;;;;;;5054588;28;20363;-80
2021/05/23 04:15:55;;;;;;;2.03;0.70;;;10.50;97.10;;;;;;5059796;28;20039;-79
2021/05/23 04:18:21;;;;;;;3.00;0.70;;;10.50;97.50;;;;;;5070341;28;20044;-81
2021/05/23 04:20:47;;;;;;;6.70;1.02;;;10.50;97.00;;;;;;5055801;28;20032;-81
2021/05/23 04:23:13;;;;;;;2.22;0.80;;;10.60;97.20;;;;;;5056291;28;20398;-80
2021/05/23 04:25:40;;;;;;;2.95;0.68;;;10.60;96.70;;;;;;5055065;28;20044;-82
2021/05/23 04:28:07;;;;;;;1.42;0.55;;;10.70;96.70;;;;;;5054952;28;20032;-81
2021/05/23 04:30:33;;;;;;;4.75;0.98;;;10.80;96.10;;;;;;5055180;28;20037;-80
2021/05/23 04:33:01;;;;;;;2.42;0.73;;;10.90;95.10;;;;;;5054462;28;20045;-82
2021/05/23 04:35:27;;;;;;;3.08;0.95;;;11.20;95.10;;;;;;5055190;28;20049;-81
2021/05/23 04:37:54;;;;;;;4.80;0.95;;;11.30;95.30;;;;;;5053961;28;20037;-81
2021/05/23 04:40:21;;;;;;;2.78;0.85;;;11.60;94.20;;;;;;5058294;28;20028;-82
2021/05/23 04:42:47;;;;;;;3.00;0.65;;;11.60;93.70;;;;;;5064525;28;20036;-84
2021/05/23 04:45:17;;;;;;;3.38;0.80;;;11.40;93.70;;;;;;5055015;28;20044;-82
2021/05/23 04:47:43;;;;;;;2.88;0.90;;;11.10;93.80;;;;;;5053651;28;20060;-81
2021/05/23 04:50:10;;;;;;;3.83;1.00;;;11.00;94.30;;;;;;5063410;28;20044;-81
2021/05/23 04:52:37;;;;;;;2.25;0.93;;;10.90;94.90;;;;;;5053890;28;20045;-82
2021/05/23 04:55:05;;;;;;;2.88;0.70;;;10.90;95.10;;;;;;5054620;28;20041;-83
2021/05/23 04:57:32;;;;;;;2.03;0.77;;;11.00;95.30;;;;;;5054412;28;20033;-84
2021/05/23 04:59:59;;;;;;;6.60;1.17;;;10.90;95.30;;;;;;5059148;28;20529;-84
2021/05/23 05:02:25;;;;;;;3.70;1.13;;;10.80;95.30;;;;;;5058409;28;20045;-81
2021/05/23 05:04:51;;;;;;;2.47;1.05;;;10.80;95.10;;;;;;5054160;28;20025;-84
2021/05/23 05:07:17;;;;;;;3.80;1.60;;;10.90;95.10;;;;;;5054642;28;20040;-84
2021/05/23 05:09:44;;;;;;;4.25;1.05;;;10.80;94.60;;;;;;5054553;28;20036;-83
2021/05/23 05:12:11;;;;;;;2.50;0.98;;;10.80;95.40;;;;;;5054517;28;20382;-83
2021/05/23 05:14:37;;;;;;;5.55;1.50;;;11.00;95.10;;;;;;5054124;28;20049;-83
2021/05/23 05:17:03;;;;;;;1.95;0.88;;;11.20;94.00;;;;;;5053723;28;20346;-83
2021/05/23 05:19:29;;;;;;;2.67;1.15;;;11.40;94.00;;;;;;5054335;28;20040;-84
2021/05/23 05:21:56;;;;;;;3.38;1.30;;;11.40;92.70;;;;;;5053555;28;20036;-84
2021/05/23 05:24:22;;;;;;;2.33;0.68;;;11.40;93.00;;;;;;5052955;28;20033;-81
2021/05/23 05:26:48;;;;;;;4.47;1.48;;;11.70;92.70;;;;;;5053095;28;20044;-82
2021/05/23 05:29:14;;;;;;;3.70;0.90;;;12.10;91.10;;;;;;5054880;28;20025;-81
2021/05/23 05:31:41;;;;;;;3.22;0.80;;;12.60;90.40;;;;;;5042046;28;20382;-82
2021/05/23 05:34:07;;;;;;;2.40;1.35;;;13.90;84.10;;;;;;5073135;28;20492;-81
2021/05/23 05:36:33;;;;;;;3.47;0.90;;;14.10;80.40;;;;;;5074065;28;20036;-81
2021/05/23 05:38:59;;;;;;;3.75;0.82;;;14.00;79.30;;;;;;5073523;28;20040;-80
2021/05/23 05:41:26;;;;;;;2.75;0.70;;;13.90;79.00;;;;;;5073409;28;20035;-78
2021/05/23 05:43:52;;;;;;;3.28;0.90;;;13.50;79.10;;;;;;5072999;28;20044;-79
2021/05/23 05:46:19;;;;;;;3.00;0.73;;;13.50;79.50;;;;;;5072159;28;20036;-82
2021/05/23 05:48:45;;;;;;;1.60;0.50;;;13.70;77.80;;;;;;5082145;28;20032;-79
2021/05/23 05:51:11;;;;;;;3.25;1.20;;;13.50;79.10;;;;;;5074144;28;20382;-84
2021/05/23 05:53:37;;;;;;;5.28;0.60;;;13.50;78.10;;;;;;5093491;28;20457;-81
2021/05/23 05:56:04;;;;;;;1.90;0.52;;;12.70;81.20;;;;;;5073237;28;20044;-81
2021/05/23 05:58:30;;;;;;;4.05;0.70;;;12.50;83.50;;;;;;5082608;28;20039;-81
2021/05/23 06:00:57;;;;;;;3.85;0.60;;;12.70;84.10;;;;;;5086978;28;20413;-83
2021/05/23 06:03:23;;;;;;;1.63;0.73;;;12.80;82.50;;;;;;5079843;28;20028;-80
2021/05/23 06:05:49;;;;;;;2.47;0.60;;;14.30;79.70;;;;;;5089948;28;20040;-81
2021/05/23 06:08:15;;;;;;;2.55;0.77;;;15.30;74.90;;;;;;5073408;28;20351;-82
2021/05/23 06:10:42;;;;;;;2.15;0.57;;;14.50;75.00;;;;;;5080603;28;20032;-81
2021/05/23 06:13:08;;;;;;;3.97;0.85;;;12.90;79.40;;;;;;5081681;28;20382;-82
2021/05/23 06:15:34;;;;;;;2.70;0.70;;;12.40;82.10;;;;;;5088579;28;20032;-82
2021/05/23 06:18:01;;;;;;;2.80;0.90;;;12.00;83.50;;;;;;5072591;28;20044;-82
2021/05/23 06:20:27;;;;;;;2.53;0.60;;;11.90;85.60;;;;;;5073145;28;20039;-81
2021/05/23 06:22:54;;;;;;;3.80;1.15;;;11.80;86.80;;;;;;5072118;28;20032;-86
2021/05/23 06:25:20;;;;;;;2.72;0.95;;;11.70;86.50;;;;;;5075187;28;20036;-88
2021/05/23 06:27:46;;;;;;;10.75;1.48;;;11.70;87.10;;;;;;5072917;28;20047;-84
2021/05/23 06:30:13;;;;;;;2.53;1.00;;;11.90;86.10;;;;;;5087989;28;20031;-82
2021/05/23 06:32:40;;;;;;;6.10;1.05;;;12.30;85.40;;;;;;5075383;28;20044;-84
2021/05/23 06:35:06;;;;;;;2.63;0.93;;;12.40;86.00;;;;;;5081001;28;20048;-88
2021/05/23 06:37:32;;;;;;;6.35;1.20;;;13.40;82.30;;;;;;5077437;28;20024;-84
2021/05/23 06:39:59;;;;;;;2.95;1.20;;;14.20;77.40;;;;;;5081117;28;20033;-84
2021/05/23 06:42:25;;;;;;;3.72;1.10;;;13.80;77.20;;;;;;5072625;28;20028;-81
2021/05/23 06:44:51;;;;;;;3.22;1.20;;;13.50;78.50;;;;;;5081740;28;20461;-83
2021/05/23 06:47:18;;;;;;;5.32;1.35;;;13.20;79.70;;;;;;5072424;28;20389;-81
2021/05/23 06:49:44;;;;;;;2.58;1.35;;;12.80;81.20;;;;;;5089736;28;20028;-83
2021/05/23 06:52:10;;;;;;;3.15;0.98;;;12.60;81.80;;;;;;5070838;28;20036;-84
2021/05/23 06:54:37;;;;;;;2.05;0.90;;;12.70;82.00;;;;;;5072373;28;20465;-85
2021/05/23 06:57:03;;;;;;;2.75;0.77;;;12.50;83.20;;;;;;5071868;28;20043;-86
2021/05/23 06:59:29;;;;;;;3.05;0.93;;;12.50;81.50;;;;;;5072564;28;20036;-83
2021/05/23 07:01:56;;;;;;;3.88;1.25;;;12.30;83.20;;;;;;5072088;28;20047;-85
2021/05/23 07:04:22;;;;;;;3.03;0.90;;;12.40;82.20;;;;;;5072076;28;20048;-87
2021/05/23 07:06:48;;;;;;;2.40;1.00;;;12.30;82.20;;;;;;5076748;28;20043;-83
2021/05/23 07:09:15;;;;;;;3.33;1.13;;;12.40;83.00;;;;;;5075659;28;20043;-83
2021/05/23 07:11:42;;;;;;;2.45;1.20;;;12.50;82.60;;;;;;5072973;28;20379;-88
2021/05/23 07:14:09;;;;;;;1.63;0.95;;;13.10;81.10;;;;;;5071755;28;20032;-83
2021/05/23 07:16:35;;;;;;;3.30;1.17;;;13.20;79.60;;;;;;5082009;28;20464;-81
2021/05/23 07:19:02;;;;;;;4.30;1.00;;;13.40;80.80;;;;;;5071531;28;20048;-86
2021/05/23 07:21:28;;;;;;;2.78;1.10;;;14.10;76.00;;;;;;5071282;28;20047;-82
2021/05/23 07:23:54;;;;;;;3.63;1.05;;;13.60;78.70;;;;;;5071092;28;20024;-80
2021/05/23 07:26:20;;;;;;;3.17;0.90;;;13.60;77.40;;;;;;5071479;28;20505;-82
2021/05/23 07:28:47;;;;;;;3.50;1.42;;;13.40;78.20;;;;;;5073590;28;20025;-81
2021/05/23 07:31:13;;;;;;;4.70;1.52;;;13.20;78.40;;;;;;5091287;28;20028;-82
2021/05/23 07:33:39;;;;;;;2.92;1.25;;;13.00;78.90;;;;;;5053661;28;20351;-83
2021/05/23 07:36:07;;;;;;;4.20;1.55;;;13.30;77.90;;;;;;5051574;28;20661;-84
2021/05/23 07:38:34;;;;;;;3.17;1.38;;;13.20;78.00;;;;;;5051927;28;20037;-73
2021/05/23 07:41:00;;;;;;;3.63;1.10;;;13.80;74.70;;;;;;5051682;28;20029;-83
2021/05/23 07:43:27;;;;;;;2.63;0.82;;;14.90;72.00;;;;;;5051867;28;20061;-73
2021/05/23 07:45:53;;;;;;;3.20;0.70;;;15.20;71.60;;;;;;5051274;28;20051;-84
2021/05/23 07:48:19;;;;;;;1.88;0.32;;;16.90;66.10;;;;;;5065319;28;20032;-85
2021/05/23 07:50:47;;;;;;;2.13;0.80;;;17.10;62.70;;;;;;5064299;28;20386;-85
2021/05/23 07:53:14;;;;;;;3.70;0.70;;;16.40;63.20;;;;;;5055788;28;20363;-82
2021/05/23 07:55:42;;;;;;;2.72;1.10;;;16.90;63.20;;;;;;5058266;28;20041;-86
2021/05/23 07:58:08;;;;;;;2.35;0.80;;;15.70;64.00;;;;;;5070700;28;20028;-83
2021/05/23 08:00:35;;;;;;;3.25;0.70;;;15.20;67.30;;;;;;5055849;28;20037;-84
2021/05/23 08:03:01;;;;;;;2.15;0.80;;;14.70;67.60;;;;;;5066237;28;20025;-86
2021/05/23 08:05:27;;;;;;;2.95;0.88;;;13.80;69.70;;;;;;5056257;28;20033;-83
2021/05/23 08:07:54;;;;;;;3.35;0.70;;;13.90;71.70;;;;;;5055350;28;20036;-85
2021/05/23 08:10:21;;;;;;;5.47;0.88;;;14.10;70.90;;;;;;5055976;28;20029;-87
2021/05/23 08:12:47;;;;;;;2.53;0.60;;;13.80;71.70;;;;;;5055729;28;20037;-85
2021/05/23 08:15:14;;;;;;;4.38;0.70;;;13.60;71.80;;;;;;5055612;28;20040;-85
2021/05/23 08:17:42;;;;;;;2.63;0.75;;;13.40;72.30;;;;;;5054957;28;20049;-85
2021/05/23 08:20:09;;;;;;;3.55;0.50;;;13.20;72.80;;;;;;5062594;28;20768;-84
2021/05/23 08:22:35;;;;;;;1.65;0.50;;;13.20;72.00;;;;;;5065955;28;20033;-84
2021/05/23 08:25:03;;;;;;;3.55;0.82;;;13.40;72.10;;;;;;5038217;28;20045;-84
2021/05/23 08:27:29;;;;;;;3.55;1.52;;;13.50;71.80;;;;;;5065402;28;20048;-87
2021/05/23 08:29:56;;;;;;;1.75;0.90;;;13.50;72.30;;;;;;5061482;28;20048;-85
2021/05/23 08:32:23;;;;;;;5.15;0.68;;;13.30;71.70;;;;;;5054080;28;20041;-86
2021/05/23 08:34:50;;;;;;;1.75;0.73;;;13.20;73.20;;;;;;5074795;28;20028;-87
2021/05/23 08:37:17;;;;;;;3.30;0.60;;;13.10;73.20;;;;;;5079264;28;20043;-88
2021/05/23 08:39:44;;;;;;;2.70;0.68;;;13.40;70.70;;;;;;5091870;28;20381;-86
2021/05/23 08:42:11;;;;;;;3.13;0.77;;;13.50;70.70;;;;;;5074836;28;20032;-85
2021/05/23 08:44:37;;;;;;;3.13;0.65;;;13.60;70.50;;;;;;5089769;28;20049;-88
2021/05/23 08:47:04;;;;;;;5.25;1.30;;;13.50;71.20;;;;;;5087884;28;20048;-85
2021/05/23 08:49:31;;;;;;;3.90;1.10;;;13.30;71.70;;;;;;5082423;28;20051;-88
2021/05/23 08:51:57;;;;;;;1.73;0.57;;;13.20;73.00;;;;;;5082522;28;20035;-89
2021/05/23 08:54:23;;;;;;;2.10;0.60;;;13.10;72.40;;;;;;5083332;28;20583;-89
2021/05/23 08:56:51;;;;;;;3.22;0.95;;;13.30;73.50;;;;;;5082870;28;20385;-88
2021/05/23 08:59:19;;;;;;;3.97;1.27;;;13.30;75.90;;;;;;5078878;28;20040;-88
2021/05/23 09:01:45;;;;;;;4.38;1.27;;;13.30;75.50;;;;;;5080593;28;20032;-86
2021/05/23 09:04:19;;;;;;;4.57;1.08;;;13.70;80.20;;;;;;5074383;28;20033;-88
2021/05/23 09:06:46;;;;;;;2.15;0.60;;;14.70;72.10;;;;;;5074946;28;20409;-84
2021/05/23 09:09:16;;;;;;;1.52;0.50;;;15.20;71.10;;;;;;5074975;28;20028;-88
2021/05/23 09:11:54;;;;;;;1.25;0.70;;;15.90;67.90;;;;;;5074786;28;20035;-88
2021/05/23 09:14:31;;;;;;;2.10;0.60;;;17.30;65.50;;;;;;5075096;28;20032;-90
2021/05/23 09:16:58;;;;;;;1.45;0.60;;;16.90;62.80;;;;;;5080252;28;20119;-82
2021/05/23 09:19:25;;;;;;;2.17;0.50;;;15.20;65.80;;;;;;5083844;28;20033;-82
2021/05/23 09:21:53;;;;;;;1.70;0.40;;;15.10;66.60;;;;;;5077382;28;20033;-87
2021/05/23 09:24:19;;;;;;;2.50;0.65;;;14.50;68.50;;;;;;5075782;28;20049;-85
2021/05/23 09:26:48;;;;;;;2.05;0.63;;;14.30;69.10;;;;;;5093352;28;20039;-85
2021/05/23 09:29:21;;;;;;;3.38;0.80;;;14.80;68.80;;;;;;5075739;28;20033;-83
2021/05/23 09:32:02;;;;;;;1.58;0.40;;;15.80;67.70;;;;;;5073159;28;20049;-84
2021/05/23 09:34:31;;;;;;;1.13;0.50;;;16.40;63.60;;;;;;5059138;28;20036;-87
2021/05/23 09:36:59;;;;;;;3.55;0.60;;;16.00;63.00;;;;;;5070980;28;20390;-81
2021/05/23 09:39:36;;;;;;;2.10;0.65;;;16.30;61.90;;;;;;5053889;28;20052;-81
2021/05/23 09:42:04;;;;;;;2.95;0.70;;;16.50;62.30;;;;;;5065218;28;20477;-81
2021/05/23 09:44:30;;;;;;;2.28;0.30;;;16.80;62.90;;;;;;5036495;28;20033;-83
2021/05/23 09:47:01;;;;;;;1.85;0.45;;;16.70;60.70;;;;;;5064217;28;20032;-81
2021/05/23 09:49:29;;;;;;;2.88;0.80;;;15.50;63.30;;;;;;5065549;28;20037;-83
2021/05/23 09:52:02;;;;;;;2.13;0.50;;;15.20;63.70;;;;;;5057655;28;20037;-82
2021/05/23 09:54:41;;;;;;;1.58;0.38;;;15.40;65.10;;;;;;5038216;28;20037;-84
2021/05/23 09:57:15;;;;;;;2.80;0.85;;;15.90;64.40;;;;;;5057993;28;20051;-83
2021/05/23 09:59:42;;;;;;;1.48;0.52;;;16.60;62.70;;;;;;5069705;28;20036;-80
2021/05/23 10:02:13;;;;;;;5.07;0.93;;;16.50;61.40;;;;;;5056217;28;20232;-82
2021/05/23 10:04:41;;;;;;;3.00;0.38;;;15.70;62.20;;;;;;5055689;28;20033;-80
2021/05/23 10:07:09;;;;;;;2.58;0.43;;;15.60;61.90;;;;;;5037608;28;20040;-85
2021/05/23 10:09:37;;;;;;;1.45;0.55;;;15.30;62.10;;;;;;5052355;28;20041;-82
2021/05/23 10:12:09;;;;;;;2.42;0.63;;;15.20;63.60;;;;;;5035334;28;20044;-79
2021/05/23 10:14:37;;;;;;;2.40;0.40;;;15.40;62.70;;;;;;5060252;28;20028;-82
2021/05/23 10:17:08;;;;;;;2.28;0.65;;;15.50;62.50;;;;;;5068363;28;20064;-84
2021/05/23 10:19:36;;;;;;;3.58;0.68;;;15.40;63.70;;;;;;5053846;28;20037;-81
2021/05/23 10:22:07;;;;;;;2.60;0.57;;;15.50;63.10;;;;;;5053050;28;20063;-80
2021/05/23 10:24:37;;;;;;;2.83;0.35;;;15.60;62.20;;;;;;5068886;28;20039;-82
2021/05/23 10:27:07;;;;;;;3.95;0.63;;;15.50;61.40;;;;;;5061297;28;20036;-84
2021/05/23 10:29:36;;;;;;;2.30;0.40;;;15.40;62.00;;;;;;5062311;28;20041;-83
2021/05/23 10:32:08;;;;;;;2.00;0.60;;;15.00;63.60;;;;;;5054517;28;20045;-85
2021/05/23 10:34:36;;;;;;;1.17;0.40;;;15.00;63.70;;;;;;5071012;28;20028;-85
2021/05/23 10:37:03;;;;;;;3.25;0.47;;;15.00;63.70;;;;;;5054541;28;20045;-87
2021/05/23 10:39:38;;;;;;;2.72;0.52;;;15.00;62.40;;;;;;5055686;28;20044;-84
2021/05/23 10:42:06;;;;;;;3.15;0.82;;;14.90;63.40;;;;;;5067446;28;20020;-85
2021/05/23 10:44:42;;;;;;;3.60;0.70;;;14.90;65.00;;;;;;5056867;28;20484;-91
2021/05/23 10:47:15;;;;;;;2.28;0.30;;;15.00;63.80;;;;;;5055671;28;20041;-80
2021/05/23 10:50:00;;;;;;;2.42;0.50;;;14.80;62.40;;;;;;5056860;28;20478;-84
2021/05/23 10:52:33;;;;;;;1.98;0.43;;;15.20;62.20;;;;;;5054872;28;20037;-87
2021/05/23 10:55:03;;;;;;;1.85;0.50;;;15.70;62.00;;;;;;5053366;28;20045;-85
2021/05/23 10:57:43;;;;;;;2.63;0.80;;;15.70;60.00;;;;;;5060855;28;20044;-83
2021/05/23 11:00:15;;;;;;;3.53;0.65;;;15.70;61.50;;;;;;5061222;28;20520;-87
2021/05/23 11:02:43;;;;;;;2.75;0.70;;;15.50;61.60;;;;;;5053811;28;20048;-86
2021/05/23 11:05:16;;;;;;;1.63;0.50;;;15.00;62.30;;;;;;5053788;28;20025;-89
2021/05/23 11:07:55;;;;;;;3.40;0.60;;;14.80;67.20;;;;;;5053975;28;20049;-86
2021/05/23 11:10:24;;;;;;;2.75;0.82;;;14.20;76.90;;;;;;5061189;28;20040;-84
2021/05/23 11:12:57;;;;;;;3.63;1.08;;;13.60;84.00;;;;;;5059018;28;20024;-79
2021/05/23 11:15:24;;;;;;;4.60;1.40;;;13.50;88.50;;;;;;5063886;28;20043;-85
2021/05/23 11:17:53;;;;;;;2.50;0.80;;;13.80;91.80;;;;;;5057063;28;20037;-82
2021/05/23 11:20:23;;;;;;;3.40;0.75;;;14.20;88.40;;;;;;5055313;28;20037;-86
2021/05/23 11:23:06;;;;;;;2.63;0.80;;;14.20;84.00;;;;;;5054477;28;20039;-87
2021/05/23 11:25:34;;;;;;;4.07;1.05;;;14.60;90.00;;;;;;5064918;28;20033;-80
2021/05/23 11:28:03;;;;;;;1.13;0.50;;;15.20;88.40;;;;;;5063135;28;20040;-86
2021/05/23 11:30:32;;;;;;;2.45;0.85;;;15.40;79.10;;;;;;5055795;28;20045;-83
2021/05/23 11:33:00;;;;;;;2.38;1.00;;;15.30;78.60;;;;;;5067521;28;20048;-82
2021/05/23 11:35:27;;;;;;;5.15;1.08;;;15.60;75.30;;;;;;5071629;28;20047;-82
2021/05/23 11:37:55;;;;;;;2.65;0.88;;;16.10;75.60;;;;;;5062190;28;20382;-85
2021/05/23 11:40:22;;;;;;;0.80;0.40;;;16.50;69.30;;;;;;5060800;28;20382;-80
2021/05/23 11:42:49;;;;;;;2.85;1.30;;;16.70;66.10;;;;;;5056166;28;20029;-86
2021/05/23 11:45:22;;;;;;;1.30;0.75;;;16.50;68.00;;;;;;5053803;28;20033;-84
2021/05/23 11:47:52;;;;;;;1.70;0.50;;;16.30;66.10;;;;;;5051583;28;20049;-89
2021/05/23 11:50:22;;;;;;;;;;;16.20;67.90;;;;;;5053444;28;20044;-83
2021/05/23 11:52:54;;;;;;;2.25;0.55;;;16.30;66.80;;;;;;5069445;28;19912;-87
2021/05/23 11:55:21;;;;;;;2.15;0.60;;;15.80;67.50;;;;;;5063591;28;20040;-87
2021/05/23 11:57:51;;;;;;;2.08;0.50;;;15.00;76.30;;;;;;5067246;28;20045;-88
2021/05/23 12:00:19;;;;;;;1.67;0.60;;;14.60;79.90;;;;;;5061406;28;20045;-84
2021/05/23 12:02:47;;;;;;;2.20;0.50;;;14.50;79.00;;;;;;5063540;28;20029;-87
2021/05/23 12:05:13;;;;;;;2.72;0.90;;;14.90;77.50;;;;;;5056155;28;20040;-85
2021/05/23 12:07:41;;;;;;;3.55;0.68;;;15.20;74.60;;;;;;5059773;28;20029;-86
2021/05/23 12:10:08;;;;;;;2.95;0.90;;;15.90;71.50;;;;;;5054218;28;20021;-84
2021/05/23 12:12:34;;;;;;;1.48;0.90;;;16.50;67.50;;;;;;5069917;28;20461;-80
2021/05/23 12:15:01;;;;;;;2.00;0.60;;;16.90;64.80;;;;;;5043337;28;20461;-83
2021/05/23 12:17:27;;;;;;;2.40;0.80;;;17.00;65.30;;;;;;5054795;28;20068;-81
2021/05/23 12:19:59;;;;;;;1.52;0.40;;;16.80;63.80;;;;;;5051536;28;20037;-78
2021/05/23 12:22:26;;;;;;;2.05;0.73;;;16.90;63.60;;;;;;5051575;28;20139;-81
2021/05/23 12:24:55;;;;;;;2.85;1.27;;;17.10;63.30;;;;;;5033504;28;20052;-80
2021/05/23 12:27:33;;;;;;;2.63;0.50;;;17.00;63.00;;;;;;5051279;28;20041;-80
2021/05/23 12:30:27;;;;;;;1.02;0.38;;;16.70;62.40;;;;;;5033273;28;20088;-82
2021/05/23 12:33:07;;;;;;;1.48;0.68;;;16.20;63.00;;;;;;5049331;28;20045;-78
2021/05/23 12:35:35;;;;;;;2.83;0.93;;;15.70;66.40;;;;;;5057167;28;20036;-84
2021/05/23 12:38:03;;;;;;;2.67;1.10;;;15.20;67.50;;;;;;5038067;28;20041;-81
2021/05/23 12:40:40;;;;;;;2.30;0.77;;;14.20;74.10;;;;;;5062177;28;20036;-83
2021/05/23 12:43:22;;;;;;;2.47;0.88;;;14.10;79.30;;;;;;5063258;28;20037;-82
2021/05/23 12:46:10;;;;;;;1.65;0.47;;;13.70;78.70;;;;;;5054397;28;20052;-81
2021/05/23 12:48:46;;;;;;;3.47;0.65;;;13.50;83.60;;;;;;5061746;28;20039;-81
2021/05/23 12:51:15;;;;;;;2.85;0.68;;;13.60;82.80;;;;;;5056393;28;20056;-81
2021/05/23 12:53:45;;;;;;;1.48;0.45;;;14.30;83.50;;;;;;5055072;28;20033;-78